Aviation Digital Data Service (ADDS)

Output produced by METARs form (1304 UTC 26 March 2019)
found at http://www.aviationweather.gov/metar/data/
 
EDAC 261220Z 27013KT 9999 BKN036 OVC044 07/M01 Q1026
TAF EDAC 261100Z 2612/2621 28014KT 9999 BKN045 
     PROB30 
     TEMPO 2612/2616 29015G25KT 
     BECMG 2616/2619 28009KT
       
EDMA 261250Z 30008KT 270V330 9999 FEW045 BKN053 07/M03 Q1028
TAF EDMA 261100Z 2612/2621 32008KT 9999 SCT045
       
EDVE 261250Z 27016KT 9999 -RA FEW023 SCT027 OVC034 07/02 Q1025
TAF EDVE 261100Z 2612/2621 29012KT 9999 FEW020 BKN030 
     TEMPO 2612/2614 31015G25KT 
     BECMG 2619/2621 30007KT
       
EDDW 261250Z 30013KT 9999 -RA FEW013 BKN030 07/05 Q1027 NOSIG
TAF EDDW 261100Z 2612/2712 30012KT 9999 FEW015 BKN030 
     TEMPO 2612/2614 31015G25KT 
     BECMG 2619/2621 28007KT 
     TEMPO 2623/2710 BKN006 
     PROB30 
     TEMPO 2623/2704 4000 BR BKN003 
     BECMG 2710/2712 28012KT OVC008 
     TEMPO 2710/2712 3500 -DZRA
       
ETSB 261220Z 33009KT 9999 BKN030 SCT100 06/M03 Q1030 BLU BLU
TAF ETSB 261120Z 2612/2621 33007KT 9999 NSW BKN030 BKN100 BY ETGL
       
ETHB 261220Z 29018KT 9999 BKN019 BKN032 07/04 Q1027 WHT BLU TEMPO WHT
TAF ETHB 261109Z 2612/2621 29012KT 9999 NSW SCT015 BKN030 
     TEMPO 2612/2619 30012G22KT 8000 -RA SCT010 BKN015 
     BECMG 2619/2621 29008KT 7000 NSW SCT007 BKN012
       
ETHC 261220Z 27011G21KT 9999 -RA SCT020 BKN030 08/03 Q1026 BLU BLU TEMPO WHT
TAF ETHC 261115Z 2612/2621 28010KT 9999 NSW SCT020 BKN030 
     TEMPO 2612/2621 29012G22KT 7000 RA BKN015 BKN025
       
ETND 261220Z 30010KT 9999 -RA FEW013 BKN016 BKN060 07/05 Q1028 WHT BLU TEMPO WHT
TAF ETND 261100Z 2612/2621 29010KT 9999 NSW BKN035 
     TEMPO 2612/2617 31015G25KT 8000 NSW BKN020 BY ETGL
       
EDLW 261250Z 29008KT 240V330 9999 VCSH BKN026CB 08/03 Q1029
TAF EDLW 261100Z 2612/2712 28006KT 9999 BKN040 
     BECMG 2700/2703 BKN010 
     TEMPO 2703/2707 4000 BR BKN007 
     BECMG 2707/2710 BKN025
       
EDDC 261250Z 28014G24KT 230V310 9999 SCT033 BKN045 06/00 Q1024 NOSIG
TAF EDDC 261100Z 2612/2712 29015G28KT 9999 BKN035 
     BECMG 2617/2619 29007KT 
     BECMG 2702/2705 BKN010 
     TEMPO 2703/2711 4500 -RADZ BKN004 
     BECMG 2706/2708 26012KT
       
EDDL 261250Z 30010KT 270V340 9999 FEW028TCU SCT035 09/02 Q1031 NOSIG
TAF EDDL 261100Z 2612/2718 31009KT 9999 BKN040 
     BECMG 2616/2619 VRB03KT 
     BECMG 2702/2705 BKN010 
     TEMPO 2704/2708 4000 BR BKN007 
     BECMG 2707/2710 28005KT BKN025
       
EDDE 261250Z 28016KT 250V310 9999 SCT033 BKN046 07/M00 Q1026 TEMPO 27015G25KT
TAF EDDE 261100Z 2612/2712 28012KT 9999 BKN045 
     PROB30 
     TEMPO 2612/2616 29015G25KT 
     BECMG 2617/2620 29007KT 
     TEMPO 2620/2708 BKN012
       
ETHS 261220Z 31014KT 9999 SCT017 BKN030 BKN060 07/04 Q1025 BLU BLU TEMPO GRN
TAF ETHS 261119Z 2611/2621 30010KT 9999 NSW SCT020 BKN040 
     TEMPO 2611/2621 31015G28KT 4000 SHRA BKN012TCU BKN030
       
EDFH 261250Z 34008KT 290V020 9999 SCT033 06/M01 Q1029
TAF EDFH 261100Z 2612/2712 32008KT 9999 BKN025 
     BECMG 2623/2702 VRB03KT 
     PROB30 
     TEMPO 2700/2710 4000 BR BKN009 
     BECMG 2707/2709 35006KT
       
EDDF 261250Z 24005KT 190V280 9999 FEW036 BKN040 08/M01 Q1030 NOSIG
TAF EDDF 261100Z 2612/2718 31009KT 9999 FEW030 BKN040 
     TEMPO 2612/2704 SCT040 
     BECMG 2621/2624 29004KT 
     BECMG 2704/2706 SCT040 
     BECMG 2706/2708 01005KT 
     TEMPO 2706/2718 BKN040
       
EDNY 261250Z 26006KT 9999 BKN049 07/M03 Q1029
TAF EDNY 261100Z 2612/2712 03005KT 9999 SCT045 
     BECMG 2708/2710 06010KT
       
ETHF 261220Z 29010KT 9999 FEW030 BKN032 07/M00 Q1028 BLU BLU TEMPO WHT
TAF ETHF 261114Z 2612/2621 30010KT 9999 NSW BKN030 
     TEMPO 2614/2621 31012G22KT 7000 -RA BKN015
       
ETNG 261250Z 30007KT 9999 SCT032 BKN048 09/02 Q1031 NOSIG
TAF COR ETNG 261100Z 2612/2703 28007KT 9999 BKN035
       
ETIC 261256Z AUTO 28008KT 9999 OVC044 05/M01 A3032 RMK AO2 SLP289 T00541011 $
TAF ETIC 261200Z 2612/2718 29010G15KT 9999 SCT025 OVC035 620355 QNH3028INS 
     TEMPO 2612/2616 30015G25KT 
     BECMG 2619/2620 30009KT 9999 BKN035 OVC050 620355 QNH3032INS 
     BECMG 2623/2624 33007KT 9000 -SHRA SCT008 BKN010 OVC015 610255 QNH3034INS 
     BECMG 2703/2704 VRB06KT 8000 BR BKN008 OVC012 620255 QNH3037INS 
     BECMG 2708/2709 31010KT 9999 NSW SCT015 BKN035 620356 QNH3037INS TX06/2712Z
TN01/2703Z
       
EDDH 261250Z 30015KT 9999 FEW023 SCT038 07/03 Q1024 TEMPO 30015G25KT
TAF EDDH 261100Z 2612/2718 30012KT 9999 FEW015 BKN030 
     TEMPO 2612/2615 31015G25KT 
     TEMPO 2618/2622 BKN012 
     BECMG 2620/2622 28007KT 
     TEMPO 2700/2707 BKN005 
     TEMPO 2706/2718 3500 -DZRA 
     PROB30 
     TEMPO 2706/2718 2000 DZRA 
     BECMG 2707/2709 OVC007 
     BECMG 2708/2711 27012KT
       
EDHI 261250Z 31012KT 9999 -SHRA FEW017 BKN022CB BKN031 07/04 Q1025
TAF EDHI 261100Z 2612/2621 30012KT 9999 FEW015 BKN030 
     TEMPO 2612/2615 31015G25KT 
     TEMPO 2618/2621 BKN012 
     BECMG 2620/2621 28007KT
       
EDDV 261250Z 28016KT 9999 BKN023 08/04 Q1026 TEMPO 28015G25KT
TAF EDDV 261100Z 2612/2712 29012KT 9999 FEW020 BKN030 
     TEMPO 2612/2614 30015G25KT 
     BECMG 2620/2623 28007KT 
     TEMPO 2700/2707 BKN006 
     PROB30 
     TEMPO 2700/2707 4000 BR BKN003 
     BECMG 2708/2711 27012KT
       
EDQM 261250Z 26012KT 9999 BKN029 OVC042 04/M01 Q1025
TAF EDQM 261100Z 2612/2621 29010KT 9999 BKN030
       
ETIH 261256Z AUTO 27009KT 9999 OVC039 06/01 A3034 RMK AO2 SLP295 T00600011 $
ETNH 261220Z 30016KT 9999 FEW025 SCT040 08/02 Q1024 BLU+BLU TEMPO WHT
TAF ETNH 261100Z 2612/2624 29012G22KT 9999 NSW BKN040 
     TEMPO 2612/2615 32018G28KT 8000 NSW SCT020 BKN030 
     BECMG 2616/2618 28006KT 9999 NSW BKN030 
     TEMPO 2616/2620 30012KT 6000 BR BKN012 BY ETGL
       
ETSH 261220Z 28016G27KT 9999 VCSH SCT028 BKN060 BKN250 08/01 Q1024 BLU BLU TEMPO WHT
TAF ETSH 261124Z 2612/2621 25012KT 9999 NSW SCT025 BKN040 
     TEMPO 2612/2618 29015G25KT 7000 -SHRA SCT015 BKN020TCU
       
ETSI 261220Z 29010KT 9999 FEW030 BKN060 07/M04 Q1028 BLU BLU
TAF ETSI 261131Z 2612/2621 30010KT 9999 NSW SCT030 BKN060
       
EDSB 261250Z 06003KT 010V160 9999 FEW032 BKN058 09/M00 Q1030
TAF EDSB 261100Z 2612/2712 03003KT 9999 SCT045 
     PROB30 
     TEMPO 2702/2706 BKN014 
     BECMG 2707/2709 03008KT
       
EDVK 261250Z 29016KT 9999 -DZ OVC024 06/01 Q1027
TAF EDVK 261100Z 2612/2621 29012KT 9999 BKN030 
     PROB30 
     TEMPO 2612/2615 30015G25KT 
     TEMPO 2617/2621 BKN012
       
EDHK 261250Z 30015KT 9999 BKN034 09/01 Q1023
TAF EDHK 261100Z 2612/2618 30012KT 9999 FEW015 BKN030 
     TEMPO 2612/2615 31015G25KT
       
EDDK 261250Z 31010KT 9999 BKN035 08/01 Q1031 NOSIG
TAF EDDK 261100Z 2612/2718 31009KT 9999 BKN040 
     BECMG 2617/2620 VRB03KT 
     BECMG 2702/2705 BKN010 
     TEMPO 2704/2708 4500 BR BKN007 
     BECMG 2707/2710 31005KT BKN025
       
ETNL 261220Z 30019G29KT 9999 BKN030 07/00 Q1021 BLU BLU TEMPO WHT
TAF ETNL 261220Z 2612/2621 30015G25KT 9999 NSW SCT020 BKN040 
     TEMPO 2612/2615 31020G30KT 9999 NSW BKN015 BKN030 
     TEMPO 2615/2621 31012G22KT 9999 NSW SCT020 SCT030 BY ETGL
       
EDTL 261250Z 01006KT 340V060 9999 BKN044 09/M01 Q1030
TAF EDTL 261100Z 2612/2621 03006KT 9999 FEW030
       
ETHL 261220Z 03002KT 9999 FEW036 BKN050 06/M04 Q1029 BLU BLU
TAF ETHL 261115Z 2612/2621 30005KT 9999 NSW BKN050
       
ETSL 261220Z 23006KT 9999 SCT040 BKN050 05/M05 Q1028 BLU BLU
TAF ETSL 261120Z 2612/2621 27005KT 9999 NSW BKN035 BY ETGL
       
EDDP 261250Z 29016KT 9999 BKN043 08/M00 Q1025 TEMPO 29015G25KT
TAF EDDP 261100Z 2612/2712 28012KT 9999 BKN045 
     TEMPO 2612/2616 29015G25KT 
     BECMG 2617/2620 29006KT 
     BECMG 2623/2703 BKN008 
     BECMG 2704/2706 BKN012 
     BECMG 2706/2709 28011KT BKN015
       
EDHL 261250Z 29007KT 240V360 9999 BKN040 08/02 Q1023
TAF EDHL 261100Z 2612/2621 31012KT 9999 FEW015 BKN030 
     TEMPO 2612/2615 32015G25KT 
     TEMPO 2620/2621 BKN012
       
EDFM 261250Z 33007KT 290V360 9999 OVC035 08/M01 Q1031
TAF EDFM 261100Z 2612/2621 32006KT 9999 BKN040
       
EDLN 261250Z 30010KT 270V330 9999 SCT030 BKN050 09/01 Q1031
TAF EDLN 261100Z 2612/2621 30008KT 9999 BKN040 
     BECMG 2619/2621 VRB03KT
       
EDDM 261250Z 28010KT 250V310 9999 FEW030 06/M02 Q1028 NOSIG
TAF EDDM 261100Z 2612/2718 29010KT 9999 BKN045 
     BECMG 2617/2619 27005KT 
     PROB30 
     TEMPO 2701/2708 4000 -RADZSN BKN012 
     BECMG 2710/2712 33005KT 
     BECMG 2716/2718 VRB03KT
       
EDDG 261250Z 28012KT 250V310 9999 SCT016 BKN042 08/04 Q1029 NOSIG
TAF EDDG 261100Z 2612/2712 28010KT 9999 BKN030 
     BECMG 2621/2624 VRB03KT 
     BECMG 2700/2703 BKN010 
     TEMPO 2703/2707 4000 BR BKN007 
     BECMG 2707/2710 26007KT BKN025
       
ETSN 261220Z 28009KT 9999 FEW033 BKN050 07/M02 Q1028 BLU BLU
TAF ETSN 261120Z 2612/2621 28010KT 9999 NSW BKN050 BY ETGL
       
ETHN 261220Z 33008KT 9999 BKN030 05/M02 Q1028 BLU BLU
TAF ETHN 261100Z 2612/2621 33008KT 9999 NSW BKN035 
     BECMG 2617/2619 30005KT 9999 NSW BKN020
       
ETMN 261220Z 33020KT 9999 SCT012 BKN022 OVC050 07/04 Q1026 WHT BLU TEMPO WHT
TAF ETMN 261120Z 2612/2621 31015G25KT 9999 NSW SCT015 BKN035 OVC060 
     TEMPO 2613/2621 30018G28KT 6000 -RA SCT012 BKN018
       
ETNN 261220Z 31009KT 9999 SCT025 BKN040 08/01 Q1031 BLU BLU
TAF ETNN 261100Z 2612/2621 30010KT 9999 NSW FEW020 BKN040 
     PROB30 2612/2618 30010KT 6000 -RA BKN020 BKN030 BY ETGL
       
EDDN 261250Z 29013KT 9999 BKN035 07/M02 Q1028 NOSIG
TAF EDDN 261100Z 2612/2712 29010KT 9999 BKN045 
     BECMG 2617/2619 29005KT 
     PROB30 
     TEMPO 2622/2704 4000 -RADZ BKN012 
     TEMPO 2704/2708 BKN012
       
EDMO 261250Z 27003KT 160V320 9999 SCT044 BKN052 06/M04 Q1028
TAF EDMO 261100Z 2612/2621 29008KT 9999 SCT030
       
EDLP 261250Z 26008KT 220V290 9999 -RA FEW020 OVC027 06/02 Q1028
TAF EDLP 261100Z 2612/2712 27011KT 9999 BKN030 
     BECMG 2616/2618 27005KT 
     TEMPO 2618/2624 BKN010 
     BECMG 2700/2703 BKN010 
     TEMPO 2700/2708 3000 BR BKN005 
     BECMG 2708/2710 BKN020
       
ETAR 261256Z AUTO 32004KT 9999 OVC037 08/M01 A3043 RMK AO2 SLP317 T00751012 $
TAF ETAR 261006Z 2610/2716 34009KT 9999 BKN035 QNH3041INS 
     BECMG 2702/2703 35006KT 8000 BR BKN020 620303 QNH3045INS 
     TEMPO 2704/2706 3200 BR 
     BECMG 2706/2707 36006KT 9999 NSW BKN020 620302 QNH3047INS TX11/2615Z
TN03/2706Z
       
EDDR 261250Z VRB05KT 9999 SCT042 09/M01 Q1030
TAF EDDR 261100Z 2612/2712 32006KT 9999 SCT045 
     BECMG 2621/2624 VRB03KT 
     BECMG 2706/2709 04005KT
       
ETNS 261220Z 31019KT 9999 SCT027 BKN045 09/02 Q1024 BLU BLU TEMPO WHT
TAF ETNS 261220Z 2612/2621 31015G25KT 9999 NSW SCT025 SCT040 
     TEMPO 2612/2614 30020G30KT 9999 NSW BKN020 BKN030 
     TEMPO 2614/2621 30012G22KT 5000 -RADZ SCT010 BKN015 BY ETGL
       
EDDB 261250Z 30016KT 9999 -SHRA FEW015 BKN025 06/04 Q1022 TEMPO 30015G25KT
TAF EDDB 261100Z 2612/2712 29015G28KT 9999 BKN035 
     TEMPO 2612/2613 29020G30KT 
     BECMG 2617/2619 29007KT 
     BECMG 2700/2703 BKN010 
     BECMG 2703/2706 BKN006 
     PROB40 
     TEMPO 2705/2709 4500 -RADZ BKN003 
     BECMG 2706/2708 26012KT 
     TEMPO 2709/2712 BKN012
       
EDTY 261250Z 33009KT 9999 FEW032 BKN048 07/M01 Q1029
TAF EDTY 261100Z 2612/2621 29007KT 9999 SCT025 BKN040
       
EDGS 261250Z 28013KT 260V320 9999 SCT019 BKN023 04/M01 Q1028
TAF EDGS 261100Z 2612/2621 30011KT 9999 SCT012 BKN020 
     BECMG 2616/2618 SCT006 BKN010 
     BECMG 2618/2621 4000 BR BKN005
       
ETAD 261256Z AUTO 31006KT 9999 BKN040 BKN047 09/M02 A3041 RMK AO2 SLP298 T00871023 $
TAF AMD ETAD 260914Z 2609/2710 34009KT 9999 OVC025 620302 QNH3038INS 
     BECMG 2618/2619 34009KT 9999 FEW010 BKN020 620203 QNH3040INS 
     BECMG 2701/2702 34006KT 8000 BR FEW007 BKN010 QNH3044INS 
     TEMPO 2703/2706 VRB06KT 6000 BR BKN005 
     BECMG 2708/2709 02009KT 9999 NSW SCT010 BKN020 QNH3040INS TX08/2614Z
TN01/2705Z
       
EDDS 261250Z VRB04KT 9999 FEW030 BKN049 09/M02 Q1029 NOSIG
TAF EDDS 261100Z 2612/2712 31004KT 9999 FEW020 BKN045 
     PROB30 
     TEMPO 2702/2709 BKN013 
     BECMG 2708/2710 03005KT
       
EDDT 261250Z 28009KT 250V310 9999 FEW013 BKN037 07/05 Q1022 TEMPO 28015G30KT
TAF EDDT 261100Z 2612/2712 29020G30KT 9999 BKN035 
     BECMG 2617/2619 29007KT 
     BECMG 2700/2703 BKN010 
     BECMG 2703/2706 BKN006 
     PROB40 
     TEMPO 2705/2709 4500 -RADZ BKN003 
     BECMG 2706/2708 26012KT 
     TEMPO 2709/2712 BKN012
       
EDXW 261250Z 33014KT 5000 -RA OVC011 06/05 Q1025
TAF EDXW 261100Z 2612/2618 32015G25KT 9999 FEW015 BKN030 
     TEMPO 2612/2613 33020G30KT 
     TEMPO 2615/2618 BKN011
       
ETOU 261156Z AUTO 31006KT 9999 BKN035 07/00 A3043 RMK AO2 SLP312 70007 T00741003 10075 20013 58007 $
TAF ETOU 261210Z 2612/2718 32012KT 9999 SCT025 OVC035 610357 QNH3040INS 
     BECMG 2616/2617 30009KT 9999 SCT020 BKN030 610307 QNH3043INS 
     BECMG 2622/2623 VRB06KT 9000 -DZ BKN015 610159 QNH3045INS 
     BECMG 2703/2704 VRB06KT 9999 NSW SCT010 BKN030 620306 QNH3046INS TX12/2712Z
TN00/2705Z
       
ETNT 261220Z 32012KT 9999 BKN017 BKN042 08/04 Q1028 WHT BLU TEMPO GRN
TAF ETNT 261100Z 2612/2621 30012KT 9999 NSW SCT015 BKN030 
     TEMPO 2612/2618 30012G22KT 6000 -RA BKN012 OVC030 BY ETGL
       
ETNW 261220Z 28015KT 9999 SCT016 BKN043 BKN070 08/04 Q1026 BLU BLU TEMPO WHT
TAF ETNW 261100Z 2612/2712 28012KT 9999 NSW BKN035 
     TEMPO 2612/2616 31015G25KT 8000 NSW BKN020 
     BECMG 2618/2620 28010KT 6000 NSW SCT010 BKN020 
     TEMPO 2618/2709 25007KT 3000 BR BKN004 BKN015 
     TEMPO 2709/2712 27015G25KT 5000 -DZ BKN012 BY ETGL